createdAt,value
2019-03-20T00:00:30.713Z,12.60
2019-03-20T00:02:59.602Z,12.37
2019-03-20T00:05:28.392Z,11.60
2019-03-20T00:07:57.384Z,12.00
2019-03-20T00:10:27.201Z,12.65
2019-03-20T00:12:55.989Z,12.18
2019-03-20T00:15:24.873Z,12.53
2019-03-20T00:17:53.763Z,12.40
2019-03-20T00:20:22.654Z,12.40
2019-03-20T00:22:51.653Z,12.78
2019-03-20T00:31:47.407Z,12.75
2019-03-20T00:34:16.093Z,13.15
2019-03-20T00:36:45.085Z,12.70
2019-03-20T00:39:13.874Z,13.05
2019-03-20T00:41:42.662Z,12.88
2019-03-20T00:44:11.454Z,13.50
2019-03-20T00:46:40.346Z,13.38
2019-03-20T00:49:09.248Z,13.75
2019-03-20T00:51:38.055Z,13.58
2019-03-20T00:54:06.911Z,14.25
2019-03-20T00:56:35.800Z,14.23
2019-03-20T00:59:04.694Z,14.45
2019-03-20T01:01:33.481Z,13.48
2019-03-20T01:04:02.270Z,13.05
2019-03-20T01:06:31.161Z,13.50
2019-03-20T01:08:59.935Z,12.70
2019-03-20T01:11:28.735Z,13.55
2019-03-20T01:13:57.629Z,13.68
2019-03-20T01:16:26.415Z,14.03
2019-03-20T01:18:55.201Z,13.83
2019-03-20T01:21:24.196Z,14.90
2019-03-20T01:23:52.983Z,13.43
2019-03-20T01:26:21.874Z,14.58
2019-03-20T01:28:50.663Z,14.83
2019-03-20T01:31:19.552Z,14.45
2019-03-20T01:33:48.446Z,13.95
2019-03-20T01:36:17.333Z,13.72
2019-03-20T01:38:46.125Z,13.60
2019-03-20T01:41:14.915Z,13.68
2019-03-20T01:43:43.802Z,13.28
2019-03-20T01:46:12.600Z,14.10
2019-03-20T01:48:41.385Z,13.22
2019-03-20T01:51:16.410Z,13.55
2019-03-20T01:53:45.299Z,13.98
2019-03-20T01:56:14.292Z,13.78
2019-03-20T01:58:43.184Z,13.38
2019-03-20T02:01:12.074Z,14.28
2019-03-20T02:03:41.068Z,14.58
2019-03-20T02:06:10.061Z,14.58
2019-03-20T02:08:38.854Z,14.25
2019-03-20T02:11:07.637Z,14.30
2019-03-20T02:13:36.429Z,14.38
2019-03-20T02:16:05.624Z,14.73
2019-03-20T02:18:34.518Z,13.90
2019-03-20T02:21:04.213Z,13.25
2019-03-20T02:23:33.117Z,13.80
2019-03-20T02:26:02.008Z,12.85
2019-03-20T02:28:30.893Z,12.18
2019-03-20T02:30:59.988Z,13.78
2019-03-20T02:33:28.778Z,14.23
2019-03-20T02:35:57.567Z,14.20
2019-03-20T02:38:26.360Z,15.25
2019-03-20T02:40:55.345Z,13.68
2019-03-20T02:43:24.135Z,13.70
2019-03-20T02:45:53.027Z,14.78
2019-03-20T02:48:21.813Z,13.95
2019-03-20T02:50:50.498Z,14.05
2019-03-20T02:53:19.287Z,14.38
2019-03-20T02:55:47.972Z,13.68
2019-03-20T02:58:16.864Z,14.20
2019-03-20T03:00:45.651Z,14.73
2019-03-20T03:03:14.440Z,14.23
2019-03-20T03:05:43.129Z,13.43
2019-03-20T03:08:12.023Z,15.10
2019-03-20T03:10:41.013Z,13.40
2019-03-20T03:13:09.897Z,13.58
2019-03-20T03:15:38.556Z,14.53
2019-03-20T03:18:07.875Z,14.55
2019-03-20T03:20:36.674Z,14.30
2019-03-20T03:23:05.565Z,14.38
2019-03-20T03:25:34.560Z,14.30
2019-03-20T03:28:03.246Z,13.98
2019-03-20T03:30:32.140Z,15.45
2019-03-20T03:33:00.819Z,14.18
2019-03-20T03:35:29.708Z,14.38
2019-03-20T03:37:58.466Z,14.47
2019-03-20T03:40:27.290Z,13.25
2019-03-20T03:42:56.176Z,14.25
2019-03-20T03:45:25.171Z,14.33
2019-03-20T03:47:53.968Z,14.38
2019-03-20T03:50:22.747Z,14.73
2019-03-20T03:52:51.541Z,15.50
2019-03-20T03:55:20.321Z,15.05
2019-03-20T03:57:49.406Z,14.75
2019-03-20T04:00:19.444Z,15.08
2019-03-20T04:02:48.235Z,14.90
2019-03-20T04:05:17.116Z,14.95
2019-03-20T04:07:46.002Z,15.15
2019-03-20T04:10:16.123Z,15.08
2019-03-20T04:12:45.001Z,13.93
2019-03-20T04:15:14.927Z,14.58
2019-03-20T04:17:43.814Z,15.08
2019-03-20T04:20:14.207Z,15.58
2019-03-20T04:22:43.138Z,14.85
2019-03-20T04:25:12.640Z,15.95
2019-03-20T04:27:41.521Z,15.63
2019-03-20T04:30:15.891Z,15.08
2019-03-20T04:32:44.749Z,15.35
2019-03-20T04:35:13.923Z,15.80
2019-03-20T04:37:42.934Z,16.75
2019-03-20T04:40:16.065Z,16.62
2019-03-20T04:42:45.010Z,16.77
2019-03-20T04:45:14.922Z,16.52
2019-03-20T04:47:43.817Z,17.67
2019-03-20T04:50:13.787Z,18.32
2019-03-20T04:52:42.827Z,17.50
2019-03-20T04:55:12.023Z,16.55
2019-03-20T04:57:40.919Z,17.23
2019-03-20T05:00:15.947Z,17.40
2019-03-20T05:02:44.737Z,17.60
2019-03-20T05:05:13.731Z,17.77
2019-03-20T05:07:42.619Z,17.15
2019-03-20T05:10:13.967Z,18.62
2019-03-20T05:12:42.857Z,18.90
2019-03-20T05:15:13.072Z,18.60
2019-03-20T05:17:42.073Z,19.50
2019-03-20T05:20:16.194Z,20.45
2019-03-20T05:22:45.075Z,21.25
2019-03-20T05:25:13.966Z,20.95
2019-03-20T05:27:42.755Z,20.57
2019-03-20T05:30:13.427Z,19.80
2019-03-20T05:32:42.280Z,20.80
2019-03-20T05:35:11.374Z,21.50
2019-03-20T05:37:40.371Z,21.70
2019-03-20T05:40:17.854Z,22.37
2019-03-20T05:42:46.649Z,21.75
2019-03-20T05:45:19.412Z,22.10
2019-03-20T05:47:48.522Z,21.20
2019-03-20T05:50:17.823Z,22.07
2019-03-20T05:52:46.814Z,20.17
2019-03-20T05:55:15.705Z,20.62
2019-03-20T05:57:44.492Z,20.02
2019-03-20T06:00:21.892Z,18.90
2019-03-20T06:02:51.003Z,19.62
2019-03-20T06:05:19.880Z,18.70
2019-03-20T06:07:48.660Z,19.42
2019-03-20T06:10:18.398Z,19.20
2019-03-20T06:12:47.792Z,17.10
2019-03-20T06:15:16.967Z,17.42
2019-03-20T06:17:46.883Z,17.15
2019-03-20T06:20:15.984Z,16.97
2019-03-20T06:22:44.770Z,16.17
2019-03-20T06:25:14.910Z,15.83
2019-03-20T06:27:43.712Z,16.55
2019-03-20T06:30:17.272Z,15.25
2019-03-20T06:32:46.062Z,15.13
2019-03-20T06:35:14.889Z,15.63
2019-03-20T06:37:43.695Z,15.23
2019-03-20T06:40:14.266Z,15.38
2019-03-20T06:42:43.059Z,14.75
2019-03-20T06:45:17.577Z,15.20
2019-03-20T06:47:48.134Z,14.90
2019-03-20T06:50:22.126Z,13.90
2019-03-20T06:52:51.257Z,15.03
2019-03-20T06:55:20.118Z,14.83
2019-03-20T06:57:48.995Z,14.65
2019-03-20T07:00:40.519Z,13.85
2019-03-20T07:03:30.706Z,12.50
2019-03-20T07:06:05.334Z,13.85
2019-03-20T07:08:39.852Z,13.30
2019-03-20T07:11:08.735Z,13.38
2019-03-20T07:13:37.529Z,13.53
2019-03-20T07:16:06.512Z,12.18
2019-03-20T07:18:36.438Z,12.15
2019-03-20T07:21:24.478Z,13.22
2019-03-20T07:23:53.370Z,11.25
2019-03-20T07:26:22.157Z,12.20
2019-03-20T07:28:50.947Z,11.15
2019-03-20T07:31:19.735Z,12.75
2019-03-20T07:33:48.723Z,12.63
2019-03-20T07:36:17.723Z,10.23
2019-03-20T07:38:46.812Z,10.45
2019-03-20T07:41:15.602Z,10.58
2019-03-20T07:43:44.389Z,11.45
2019-03-20T07:46:13.280Z,10.80
2019-03-20T07:48:52.119Z,9.45
2019-03-20T07:51:29.390Z,9.98
2019-03-20T07:54:07.564Z,11.18
2019-03-20T07:56:46.341Z,10.78
2019-03-20T07:59:20.767Z,9.73
2019-03-20T08:01:59.390Z,10.03
2019-03-20T08:04:37.926Z,9.20
2019-03-20T08:07:18.289Z,12.70
2019-03-20T08:09:58.523Z,8.03
2019-03-20T08:12:34.382Z,8.40
2019-03-20T08:15:08.868Z,8.43
2019-03-20T08:17:43.024Z,8.18
2019-03-20T08:20:23.670Z,7.17
2019-03-20T08:22:58.168Z,6.85
2019-03-20T08:25:31.676Z,7.53
2019-03-20T08:28:01.818Z,6.35
2019-03-20T08:30:33.726Z,6.42
2019-03-20T08:33:03.463Z,6.45
2019-03-20T08:35:34.620Z,6.90
2019-03-20T08:38:05.271Z,7.28
2019-03-20T08:40:34.943Z,6.87
2019-03-20T08:43:07.698Z,6.67
2019-03-20T08:45:40.264Z,6.35
2019-03-20T08:48:13.933Z,6.12
2019-03-20T08:50:45.770Z,6.65
2019-03-20T08:53:14.552Z,5.70
2019-03-20T08:55:43.341Z,7.08
2019-03-20T08:58:15.907Z,6.05
2019-03-20T09:00:47.283Z,6.53
2019-03-20T09:03:20.180Z,6.15
2019-03-20T09:05:52.531Z,4.92
2019-03-20T09:08:29.459Z,5.45
2019-03-20T09:10:58.694Z,5.10
2019-03-20T09:13:30.672Z,5.15
2019-03-20T09:16:03.219Z,5.15
2019-03-20T09:18:35.178Z,4.83
2019-03-20T09:21:09.666Z,3.98
2019-03-20T09:23:41.867Z,4.35
2019-03-20T09:26:12.160Z,4.35
2019-03-20T09:28:45.353Z,4.15
2019-03-20T09:31:14.968Z,4.03
2019-03-20T09:33:44.792Z,4.17
2019-03-20T09:36:14.805Z,4.03
2019-03-20T09:38:44.008Z,4.15
2019-03-20T09:41:13.140Z,4.53
2019-03-20T09:43:42.130Z,4.08
2019-03-20T09:46:10.919Z,4.47
2019-03-20T09:48:39.895Z,4.17
2019-03-20T09:51:08.802Z,4.60
2019-03-20T09:53:37.927Z,4.60
2019-03-20T09:56:06.786Z,4.95
2019-03-20T09:58:35.679Z,4.80
2019-03-20T10:01:04.674Z,4.35
2019-03-20T10:03:33.492Z,4.20
2019-03-20T10:06:02.348Z,4.17
2019-03-20T10:08:31.447Z,4.70
2019-03-20T10:11:00.339Z,4.17
2019-03-20T10:13:29.144Z,4.67
2019-03-20T10:15:57.910Z,3.92
2019-03-20T10:18:26.803Z,3.70
2019-03-20T10:20:55.591Z,3.75
2019-03-20T10:23:24.379Z,3.92
2019-03-20T10:25:53.277Z,4.55
2019-03-20T10:28:22.159Z,4.47
2019-03-20T10:31:10.763Z,4.72
2019-03-20T10:33:48.780Z,3.80
2019-03-20T10:36:22.478Z,3.27
2019-03-20T10:38:51.431Z,3.52
2019-03-20T10:41:20.204Z,3.75
2019-03-20T10:43:49.088Z,3.65
2019-03-20T10:46:18.092Z,3.30
2019-03-20T10:48:47.075Z,4.53
2019-03-20T10:51:16.071Z,3.17
2019-03-20T10:53:45.367Z,3.83
2019-03-20T10:56:14.260Z,3.50
2019-03-20T10:58:43.148Z,3.35
2019-03-20T11:01:12.040Z,3.33
2019-03-20T11:03:40.951Z,3.02
2019-03-20T11:06:09.842Z,3.85
2019-03-20T11:08:38.814Z,3.35
2019-03-20T11:11:07.707Z,4.37
2019-03-20T11:13:36.713Z,3.70
2019-03-20T11:16:05.796Z,3.60
2019-03-20T11:18:34.752Z,3.50
2019-03-20T11:21:03.675Z,3.80
2019-03-20T11:23:32.462Z,4.45
2019-03-20T11:26:01.253Z,3.20
2019-03-20T11:28:30.195Z,3.65
2019-03-20T11:30:59.141Z,4.05
2019-03-20T11:33:28.128Z,3.92
2019-03-20T11:35:57.018Z,3.75
2019-03-20T11:38:25.908Z,3.45
2019-03-20T11:40:54.801Z,3.00
2019-03-20T11:43:24.743Z,3.62
2019-03-20T11:45:53.502Z,4.03
2019-03-20T11:48:22.393Z,3.62
2019-03-20T11:50:52.308Z,3.80
2019-03-20T11:53:22.331Z,11.40
2019-03-20T11:55:52.335Z,3.40
2019-03-20T11:58:21.132Z,3.42
2019-03-20T12:00:50.821Z,3.62
2019-03-20T12:03:25.455Z,3.55
2019-03-20T12:05:54.977Z,3.00
2019-03-20T12:08:24.504Z,4.35
2019-03-20T12:11:45.201Z,3.80
2019-03-20T12:14:41.000Z,4.15
2019-03-20T12:17:47.636Z,3.67
2019-03-20T12:20:18.408Z,3.33
2019-03-20T12:22:48.757Z,4.35
2019-03-20T12:25:30.311Z,3.45
2019-03-20T12:27:59.443Z,3.77
2019-03-20T12:30:30.243Z,3.80
2019-03-20T12:32:59.562Z,3.58
2019-03-20T12:35:33.961Z,3.37
2019-03-20T12:38:13.733Z,3.60
2019-03-20T12:40:33.808Z,3.33
2019-03-20T12:43:03.264Z,3.72
2019-03-20T12:45:34.762Z,4.00
2019-03-20T12:48:04.076Z,4.00
2019-03-20T12:50:33.509Z,4.10
2019-03-20T12:53:02.694Z,3.80
2019-03-20T12:55:31.852Z,4.15
2019-03-20T12:58:00.979Z,4.08
2019-03-20T13:00:30.774Z,4.45
2019-03-20T13:03:00.818Z,4.42
2019-03-20T13:05:32.403Z,3.95
2019-03-20T13:08:05.975Z,3.90
2019-03-20T13:10:33.128Z,4.20
2019-03-20T13:13:02.727Z,3.90
2019-03-20T13:15:33.504Z,4.05
2019-03-20T13:18:02.526Z,4.03
2019-03-20T13:20:31.814Z,4.78
2019-03-20T13:23:27.970Z,4.58
2019-03-20T13:25:57.154Z,4.53
2019-03-20T13:28:26.044Z,5.10
2019-03-20T13:30:57.870Z,5.35
2019-03-20T13:33:26.899Z,5.03
2019-03-20T13:35:55.879Z,4.50
2019-03-20T13:38:25.032Z,4.12
2019-03-20T13:40:54.086Z,4.95
2019-03-20T13:43:23.382Z,4.58
2019-03-20T13:45:52.373Z,4.45
2019-03-20T13:48:21.157Z,4.37
2019-03-20T13:50:50.180Z,4.78
2019-03-20T13:53:19.153Z,5.30
2019-03-20T13:55:48.037Z,5.12
2019-03-20T13:58:16.957Z,5.42
2019-03-20T14:00:46.025Z,4.00
2019-03-20T14:03:15.019Z,4.58
2019-03-20T14:05:44.010Z,4.85
2019-03-20T14:08:13.308Z,5.53
2019-03-20T14:10:50.396Z,4.35
2019-03-20T14:13:12.741Z,4.78
2019-03-20T14:15:41.520Z,4.15
2019-03-20T14:18:10.922Z,4.20
2019-03-20T14:20:39.828Z,4.25
2019-03-20T14:23:09.052Z,4.45
2019-03-20T14:25:38.222Z,5.20
2019-03-20T14:28:07.260Z,4.40
2019-03-20T14:30:37.254Z,4.72
2019-03-20T14:33:06.620Z,5.42
2019-03-20T14:35:36.836Z,5.17
2019-03-20T14:38:06.142Z,4.30
2019-03-20T14:40:39.046Z,5.15
2019-03-20T14:43:08.271Z,4.05
2019-03-20T14:46:12.983Z,4.50
2019-03-20T14:48:51.989Z,4.67
2019-03-20T14:51:21.088Z,5.03
2019-03-20T14:53:50.067Z,5.00
2019-03-20T14:56:18.960Z,5.72
2019-03-20T14:58:47.958Z,5.25
2019-03-20T15:01:16.738Z,4.12
2019-03-20T15:03:45.514Z,5.08
2019-03-20T15:06:14.422Z,5.15
2019-03-20T15:08:43.399Z,4.65
2019-03-20T15:11:13.278Z,5.25
2019-03-20T15:13:48.362Z,4.60
2019-03-20T15:16:17.974Z,4.92
2019-03-20T15:21:55.163Z,4.75
2019-03-20T15:24:26.299Z,5.20
2019-03-20T15:26:58.914Z,4.78
2019-03-20T15:29:28.699Z,4.35
2019-03-20T15:32:05.591Z,4.70
2019-03-20T15:35:16.908Z,4.70
2019-03-20T15:37:41.874Z,4.40
2019-03-20T15:40:19.055Z,4.45
2019-03-20T15:42:48.208Z,5.33
2019-03-20T15:45:24.918Z,4.50
2019-03-20T15:47:53.710Z,4.45
2019-03-20T15:51:04.148Z,4.45
2019-03-20T15:54:11.351Z,5.47
2019-03-20T15:56:38.514Z,4.45
2019-03-20T15:59:07.620Z,4.60
2019-03-20T16:01:36.500Z,4.80
2019-03-20T16:04:05.807Z,4.70
2019-03-20T16:06:34.794Z,5.60
2019-03-20T16:09:04.826Z,5.05
2019-03-20T16:11:33.703Z,6.20
2019-03-20T16:14:02.694Z,5.87
2019-03-20T16:16:31.688Z,5.10
2019-03-20T16:19:00.577Z,5.12
2019-03-20T16:21:29.367Z,5.10
2019-03-20T16:24:07.912Z,5.67
2019-03-20T16:26:36.762Z,5.75
2019-03-20T16:29:05.661Z,5.47
2019-03-20T16:31:34.449Z,5.70
2019-03-20T16:34:03.343Z,5.62
2019-03-20T16:36:32.216Z,5.90
2019-03-20T16:39:01.240Z,6.58
2019-03-20T16:41:30.117Z,6.42
2019-03-20T16:43:59.517Z,5.62
2019-03-20T16:46:28.513Z,5.75
2019-03-20T16:48:57.400Z,5.47
2019-03-20T16:51:26.190Z,5.80
2019-03-20T16:53:55.103Z,5.00
2019-03-20T16:56:23.764Z,5.37
2019-03-20T16:58:52.658Z,6.03
2019-03-20T17:01:21.546Z,5.60
2019-03-20T17:04:00.562Z,6.35
2019-03-20T17:06:20.864Z,5.72
2019-03-20T17:08:50.077Z,5.58
2019-03-20T17:11:27.425Z,6.03
2019-03-20T17:13:49.689Z,5.47
2019-03-20T17:16:18.910Z,5.90
2019-03-20T17:18:47.881Z,6.22
2019-03-20T17:21:16.776Z,6.37
2019-03-20T17:23:45.668Z,5.78
2019-03-20T17:26:14.791Z,5.60
2019-03-20T17:28:50.823Z,5.95
2019-03-20T17:31:22.758Z,6.28
2019-03-20T17:33:52.326Z,6.47
2019-03-20T17:36:24.865Z,6.50
2019-03-20T17:38:54.441Z,7.67
2019-03-20T17:41:23.252Z,6.75
2019-03-20T17:43:52.627Z,6.20
2019-03-20T17:46:21.650Z,5.92
2019-03-20T17:48:50.640Z,5.80
2019-03-20T17:51:19.531Z,5.75
2019-03-20T17:53:48.421Z,6.55
2019-03-20T17:56:17.516Z,7.17
2019-03-20T17:58:46.408Z,6.10
2019-03-20T18:01:15.305Z,7.80
2019-03-20T18:03:44.189Z,6.30
2019-03-20T18:06:13.121Z,6.30
2019-03-20T18:08:41.975Z,6.60
2019-03-20T18:11:10.963Z,7.05
2019-03-20T18:13:39.856Z,6.97
2019-03-20T18:16:09.156Z,7.75
2019-03-20T18:18:38.098Z,8.70
2019-03-20T18:21:07.139Z,9.05
2019-03-20T18:23:36.045Z,8.18
2019-03-20T18:26:04.922Z,8.70
2019-03-20T18:28:34.529Z,7.90
2019-03-20T18:31:03.626Z,8.33
2019-03-20T18:33:35.909Z,9.43
2019-03-20T18:36:04.993Z,8.85
2019-03-20T18:38:34.111Z,9.25
2019-03-20T18:41:03.904Z,8.58
2019-03-20T18:43:33.096Z,9.33
2019-03-20T18:46:02.808Z,10.03
2019-03-20T18:48:31.790Z,9.63
2019-03-20T18:51:00.954Z,9.58
2019-03-20T18:53:30.397Z,9.40
2019-03-20T18:55:59.399Z,9.63
2019-03-20T18:58:28.301Z,11.00
2019-03-20T19:00:57.188Z,10.78
2019-03-20T19:03:38.456Z,10.93
2019-03-20T19:06:10.306Z,10.45
2019-03-20T19:08:39.114Z,9.90
2019-03-20T19:11:08.564Z,11.00
2019-03-20T19:13:37.702Z,10.45
2019-03-20T19:16:06.695Z,10.78
2019-03-20T19:18:35.815Z,10.60
2019-03-20T19:21:05.111Z,11.22
2019-03-20T19:23:33.984Z,11.08
2019-03-20T19:26:05.094Z,11.63
2019-03-20T19:28:33.927Z,10.82
2019-03-20T19:31:02.814Z,12.37
2019-03-20T19:33:31.932Z,11.35
2019-03-20T19:36:01.473Z,13.32
2019-03-20T19:38:34.952Z,12.30
2019-03-20T19:41:01.955Z,12.63
2019-03-20T19:43:30.753Z,11.93
2019-03-20T19:45:59.526Z,12.55
2019-03-20T19:48:29.546Z,13.53
2019-03-20T19:50:58.741Z,13.28
2019-03-20T19:53:28.037Z,13.72
2019-03-20T19:55:57.054Z,13.60
2019-03-20T19:58:25.926Z,13.58
2019-03-20T20:00:54.813Z,13.30
2019-03-20T20:03:23.703Z,12.13
2019-03-20T20:05:52.603Z,13.78
2019-03-20T20:08:21.382Z,11.78
2019-03-20T20:10:50.616Z,15.03
2019-03-20T20:13:20.610Z,13.15
2019-03-20T20:15:49.685Z,13.03
2019-03-20T20:18:18.788Z,14.65
2019-03-20T20:20:47.574Z,15.03
2019-03-20T20:23:16.596Z,16.87
2019-03-20T20:25:48.802Z,14.87
2019-03-20T20:28:17.628Z,14.63
2019-03-20T20:30:49.622Z,15.25
2019-03-20T20:33:24.583Z,14.35
2019-03-20T20:36:13.080Z,14.68
2019-03-20T20:38:45.473Z,15.80
2019-03-20T20:41:17.737Z,15.32
2019-03-20T20:44:06.888Z,14.93
2019-03-20T20:46:41.361Z,15.55
2019-03-20T20:49:10.505Z,16.70
2019-03-20T20:51:40.427Z,15.48
2019-03-20T20:54:12.164Z,18.02
2019-03-20T20:56:42.294Z,16.12
2019-03-20T20:59:11.388Z,14.35
2019-03-20T21:01:40.385Z,13.32
2019-03-20T21:04:10.602Z,18.37
2019-03-20T21:06:39.754Z,17.40
2019-03-20T21:09:11.964Z,17.00
2019-03-20T21:11:41.167Z,17.45
2019-03-20T21:14:10.286Z,17.82
2019-03-20T21:16:40.707Z,17.65
2019-03-20T21:19:22.172Z,18.62
2019-03-20T21:22:11.544Z,17.02
2019-03-20T21:24:59.890Z,18.65
2019-03-20T21:27:58.372Z,19.25
2019-03-20T21:30:45.085Z,18.35
2019-03-20T21:33:51.560Z,18.12
2019-03-20T21:36:57.254Z,17.10
2019-03-20T21:39:26.513Z,17.17
2019-03-20T21:42:34.149Z,17.55
2019-03-20T21:45:23.994Z,17.82
2019-03-20T21:47:53.735Z,18.67
2019-03-20T21:50:42.830Z,19.65
2019-03-20T21:53:15.035Z,20.45
2019-03-20T21:56:16.078Z,19.98
2019-03-20T21:58:50.909Z,19.27
2019-03-20T22:01:40.891Z,18.23
2019-03-20T22:04:09.682Z,17.40
2019-03-20T22:07:08.959Z,16.93
2019-03-20T22:09:54.196Z,16.52
2019-03-20T22:12:29.132Z,18.30
2019-03-20T22:15:20.919Z,15.72
2019-03-20T22:18:18.996Z,15.80
2019-03-20T22:20:51.476Z,17.35
2019-03-20T22:26:10.141Z,16.75
2019-03-20T22:31:15.790Z,17.35
2019-03-20T22:34:21.802Z,16.25
2019-03-20T22:36:52.404Z,16.52
2019-03-20T22:39:57.959Z,16.05
2019-03-20T22:42:33.001Z,18.30
2019-03-20T22:45:23.065Z,16.45
2019-03-20T22:48:15.102Z,16.35
2019-03-20T22:50:50.341Z,16.70
2019-03-20T22:53:57.022Z,16.40
2019-03-20T22:56:48.269Z,17.12
2019-03-20T23:02:36.486Z,14.95
2019-03-20T23:05:09.584Z,15.95
2019-03-20T23:07:39.399Z,16.23
2019-03-20T23:10:17.525Z,17.55
2019-03-20T23:12:52.520Z,17.50
2019-03-20T23:15:25.772Z,16.10
2019-03-20T23:18:00.301Z,17.60
2019-03-20T23:20:34.965Z,16.77
2019-03-20T23:23:09.630Z,16.80
2019-03-20T23:25:43.776Z,17.10
2019-03-20T23:28:17.595Z,17.00
2019-03-20T23:30:47.025Z,16.12
2019-03-20T23:33:20.908Z,18.20
2019-03-20T23:35:54.794Z,18.05
2019-03-20T23:38:30.295Z,18.07
2019-03-20T23:41:04.336Z,17.82
2019-03-20T23:43:38.250Z,18.55
2019-03-20T23:46:12.651Z,18.25
2019-03-20T23:48:47.879Z,18.32
2019-03-20T23:51:31.298Z,18.85
2019-03-20T23:54:03.802Z,18.77
2019-03-20T23:56:39.629Z,18.32
2019-03-20T23:59:11.740Z,18.62
